sensor_id;sensor_type;location;lat;lon;timestamp;temperature;humidity
68511;SHT31;55512;50.102;19.958;2023-05-01T00:02:23;9.54;44.80
68511;SHT31;55512;50.102;19.958;2023-05-01T00:04:48;9.49;45.03
68511;SHT31;55512;50.102;19.958;2023-05-01T00:07:14;9.44;45.41
68511;SHT31;55512;50.102;19.958;2023-05-01T00:09:40;9.37;45.79
68511;SHT31;55512;50.102;19.958;2023-05-01T00:12:06;9.31;46.16
68511;SHT31;55512;50.102;19.958;2023-05-01T00:14:31;9.25;46.70
68511;SHT31;55512;50.102;19.958;2023-05-01T00:16:57;9.21;46.89
68511;SHT31;55512;50.102;19.958;2023-05-01T00:19:22;9.15;47.06
68511;SHT31;55512;50.102;19.958;2023-05-01T00:21:48;9.10;47.00
68511;SHT31;55512;50.102;19.958;2023-05-01T00:24:16;9.04;47.02
68511;SHT31;55512;50.102;19.958;2023-05-01T00:26:41;8.99;47.37
68511;SHT31;55512;50.102;19.958;2023-05-01T00:29:08;8.96;47.58
68511;SHT31;55512;50.102;19.958;2023-05-01T00:31:33;8.92;47.76
68511;SHT31;55512;50.102;19.958;2023-05-01T00:34:00;8.87;47.74
68511;SHT31;55512;50.102;19.958;2023-05-01T00:36:26;8.83;47.89
68511;SHT31;55512;50.102;19.958;2023-05-01T00:38:52;8.78;47.96
68511;SHT31;55512;50.102;19.958;2023-05-01T00:41:17;8.73;47.89
68511;SHT31;55512;50.102;19.958;2023-05-01T00:43:43;8.69;47.89
68511;SHT31;55512;50.102;19.958;2023-05-01T00:46:08;8.65;47.87
68511;SHT31;55512;50.102;19.958;2023-05-01T00:48:35;8.62;47.80
68511;SHT31;55512;50.102;19.958;2023-05-01T00:51:00;8.60;47.56
68511;SHT31;55512;50.102;19.958;2023-05-01T00:53:35;8.60;47.41
68511;SHT31;55512;50.102;19.958;2023-05-01T00:56:00;8.57;47.44
68511;SHT31;55512;50.102;19.958;2023-05-01T00:58:28;8.56;47.31
68511;SHT31;55512;50.102;19.958;2023-05-01T01:00:53;8.58;47.15
68511;SHT31;55512;50.102;19.958;2023-05-01T01:03:20;8.58;47.06
68511;SHT31;55512;50.102;19.958;2023-05-01T01:05:50;8.58;47.24
68511;SHT31;55512;50.102;19.958;2023-05-01T01:22:38;8.55;47.14
68511;SHT31;55512;50.102;19.958;2023-05-01T01:25:28;8.53;47.24
68511;SHT31;55512;50.102;19.958;2023-05-01T01:35:04;8.50;47.29
68511;SHT31;55512;50.102;19.958;2023-05-01T01:37:38;8.48;47.54
68511;SHT31;55512;50.102;19.958;2023-05-01T01:40:13;8.46;47.61
68511;SHT31;55512;50.102;19.958;2023-05-01T01:42:48;8.45;47.67
68511;SHT31;55512;50.102;19.958;2023-05-01T01:45:22;8.45;47.62
68511;SHT31;55512;50.102;19.958;2023-05-01T01:47:56;8.43;47.83
68511;SHT31;55512;50.102;19.958;2023-05-01T01:50:23;8.37;48.10
68511;SHT31;55512;50.102;19.958;2023-05-01T01:52:52;8.31;48.27
68511;SHT31;55512;50.102;19.958;2023-05-01T01:55:24;8.25;48.45
68511;SHT31;55512;50.102;19.958;2023-05-01T01:57:55;8.20;48.69
68511;SHT31;55512;50.102;19.958;2023-05-01T02:00:24;8.16;48.79
68511;SHT31;55512;50.102;19.958;2023-05-01T02:02:52;8.11;48.99
68511;SHT31;55512;50.102;19.958;2023-05-01T02:05:19;8.06;49.20
68511;SHT31;55512;50.102;19.958;2023-05-01T02:07:48;8.01;49.25
68511;SHT31;55512;50.102;19.958;2023-05-01T02:10:16;7.99;49.38
68511;SHT31;55512;50.102;19.958;2023-05-01T02:12:45;7.97;49.48
68511;SHT31;55512;50.102;19.958;2023-05-01T02:15:14;7.93;49.71
68511;SHT31;55512;50.102;19.958;2023-05-01T02:17:43;7.90;49.76
68511;SHT31;55512;50.102;19.958;2023-05-01T02:20:09;7.88;49.67
68511;SHT31;55512;50.102;19.958;2023-05-01T02:22:37;7.88;49.59
68511;SHT31;55512;50.102;19.958;2023-05-01T02:25:06;7.88;49.50
68511;SHT31;55512;50.102;19.958;2023-05-01T02:27:37;7.88;49.38
68511;SHT31;55512;50.102;19.958;2023-05-01T02:30:08;7.89;49.30
68511;SHT31;55512;50.102;19.958;2023-05-01T02:32:36;7.88;49.33
68511;SHT31;55512;50.102;19.958;2023-05-01T02:35:01;7.90;49.48
68511;SHT31;55512;50.102;19.958;2023-05-01T02:37:27;7.89;49.57
68511;SHT31;55512;50.102;19.958;2023-05-01T02:39:55;7.85;49.78
68511;SHT31;55512;50.102;19.958;2023-05-01T02:42:21;7.82;50.18
68511;SHT31;55512;50.102;19.958;2023-05-01T02:44:52;7.75;50.37
68511;SHT31;55512;50.102;19.958;2023-05-01T02:47:22;7.71;50.61
68511;SHT31;55512;50.102;19.958;2023-05-01T02:49:51;7.64;50.98
68511;SHT31;55512;50.102;19.958;2023-05-01T02:52:18;7.56;51.19
68511;SHT31;55512;50.102;19.958;2023-05-01T02:54:46;7.49;51.37
68511;SHT31;55512;50.102;19.958;2023-05-01T02:57:13;7.45;51.43
68511;SHT31;55512;50.102;19.958;2023-05-01T02:59:42;7.41;51.53
68511;SHT31;55512;50.102;19.958;2023-05-01T03:02:07;7.39;51.69
68511;SHT31;55512;50.102;19.958;2023-05-01T03:04:33;7.39;51.72
68511;SHT31;55512;50.102;19.958;2023-05-01T03:06:58;7.39;51.77
68511;SHT31;55512;50.102;19.958;2023-05-01T03:09:24;7.36;51.92
68511;SHT31;55512;50.102;19.958;2023-05-01T03:11:49;7.33;52.02
68511;SHT31;55512;50.102;19.958;2023-05-01T03:14:15;7.27;52.08
68511;SHT31;55512;50.102;19.958;2023-05-01T03:16:40;7.24;52.19
68511;SHT31;55512;50.102;19.958;2023-05-01T03:19:06;7.22;52.18
68511;SHT31;55512;50.102;19.958;2023-05-01T03:21:31;7.21;52.21
68511;SHT31;55512;50.102;19.958;2023-05-01T03:23:57;7.20;52.29
68511;SHT31;55512;50.102;19.958;2023-05-01T03:26:23;7.20;52.21
68511;SHT31;55512;50.102;19.958;2023-05-01T03:28:50;7.20;52.37
68511;SHT31;55512;50.102;19.958;2023-05-01T03:31:15;7.16;52.47
68511;SHT31;55512;50.102;19.958;2023-05-01T03:33:41;7.13;52.59
68511;SHT31;55512;50.102;19.958;2023-05-01T03:36:06;7.10;52.77
68511;SHT31;55512;50.102;19.958;2023-05-01T03:38:35;7.11;52.73
68511;SHT31;55512;50.102;19.958;2023-05-01T03:41:00;7.11;52.52
68511;SHT31;55512;50.102;19.958;2023-05-01T03:43:26;7.11;52.58
68511;SHT31;55512;50.102;19.958;2023-05-01T03:45:52;7.12;52.62
68511;SHT31;55512;50.102;19.958;2023-05-01T03:48:18;7.09;52.83
68511;SHT31;55512;50.102;19.958;2023-05-01T03:50:44;7.05;53.09
68511;SHT31;55512;50.102;19.958;2023-05-01T03:53:10;7.05;53.27
68511;SHT31;55512;50.102;19.958;2023-05-01T03:55:37;7.05;53.32
68511;SHT31;55512;50.102;19.958;2023-05-01T03:58:04;7.02;53.30
68511;SHT31;55512;50.102;19.958;2023-05-01T04:00:31;7.02;53.34
68511;SHT31;55512;50.102;19.958;2023-05-01T04:02:57;7.05;53.36
68511;SHT31;55512;50.102;19.958;2023-05-01T04:05:22;7.07;53.30
68511;SHT31;55512;50.102;19.958;2023-05-01T04:07:48;7.10;53.37
68511;SHT31;55512;50.102;19.958;2023-05-01T04:10:13;7.11;53.50
68511;SHT31;55512;50.102;19.958;2023-05-01T04:12:39;7.13;53.57
68511;SHT31;55512;50.102;19.958;2023-05-01T04:15:05;7.17;53.60
68511;SHT31;55512;50.102;19.958;2023-05-01T04:17:31;7.24;53.55
68511;SHT31;55512;50.102;19.958;2023-05-01T04:19:57;7.34;53.45
68511;SHT31;55512;50.102;19.958;2023-05-01T04:22:22;7.44;53.20
68511;SHT31;55512;50.102;19.958;2023-05-01T04:24:48;7.53;53.30
68511;SHT31;55512;50.102;19.958;2023-05-01T04:27:13;7.60;53.56
68511;SHT31;55512;50.102;19.958;2023-05-01T04:29:39;7.66;53.83
68511;SHT31;55512;50.102;19.958;2023-05-01T04:32:05;7.70;54.08
68511;SHT31;55512;50.102;19.958;2023-05-01T04:34:31;7.74;54.20
68511;SHT31;55512;50.102;19.958;2023-05-01T04:36:57;7.82;54.23
68511;SHT31;55512;50.102;19.958;2023-05-01T04:39:23;7.89;54.34
68511;SHT31;55512;50.102;19.958;2023-05-01T04:41:48;7.95;54.43
68511;SHT31;55512;50.102;19.958;2023-05-01T04:44:14;8.04;54.34
68511;SHT31;55512;50.102;19.958;2023-05-01T04:46:40;8.14;54.17
68511;SHT31;55512;50.102;19.958;2023-05-01T04:49:05;8.23;54.22
68511;SHT31;55512;50.102;19.958;2023-05-01T04:51:31;8.31;54.03
68511;SHT31;55512;50.102;19.958;2023-05-01T04:53:57;8.44;53.81
68511;SHT31;55512;50.102;19.958;2023-05-01T04:56:23;8.53;53.52
68511;SHT31;55512;50.102;19.958;2023-05-01T04:58:49;8.65;53.09
68511;SHT31;55512;50.102;19.958;2023-05-01T05:01:15;8.76;52.63
68511;SHT31;55512;50.102;19.958;2023-05-01T05:03:40;8.87;52.32
68511;SHT31;55512;50.102;19.958;2023-05-01T05:06:06;8.98;52.63
68511;SHT31;55512;50.102;19.958;2023-05-01T05:08:32;9.08;52.84
68511;SHT31;55512;50.102;19.958;2023-05-01T05:10:58;9.16;52.94
68511;SHT31;55512;50.102;19.958;2023-05-01T05:13:24;9.24;52.96
68511;SHT31;55512;50.102;19.958;2023-05-01T05:15:50;9.31;52.80
68511;SHT31;55512;50.102;19.958;2023-05-01T05:18:15;9.39;52.73
68511;SHT31;55512;50.102;19.958;2023-05-01T05:20:41;9.47;52.57
68511;SHT31;55512;50.102;19.958;2023-05-01T05:23:06;9.55;52.39
68511;SHT31;55512;50.102;19.958;2023-05-01T05:25:32;9.64;52.14
68511;SHT31;55512;50.102;19.958;2023-05-01T05:27:57;9.75;51.94
68511;SHT31;55512;50.102;19.958;2023-05-01T05:30:24;9.85;51.52
68511;SHT31;55512;50.102;19.958;2023-05-01T05:32:50;9.94;51.20
68511;SHT31;55512;50.102;19.958;2023-05-01T05:35:16;10.06;50.91
68511;SHT31;55512;50.102;19.958;2023-05-01T05:37:41;10.16;50.69
68511;SHT31;55512;50.102;19.958;2023-05-01T05:40:08;10.24;50.58
68511;SHT31;55512;50.102;19.958;2023-05-01T05:42:34;10.34;50.39
68511;SHT31;55512;50.102;19.958;2023-05-01T05:45:00;10.44;49.83
68511;SHT31;55512;50.102;19.958;2023-05-01T05:47:25;10.53;49.32
68511;SHT31;55512;50.102;19.958;2023-05-01T05:49:51;10.61;48.99
68511;SHT31;55512;50.102;19.958;2023-05-01T05:52:16;10.70;48.73
68511;SHT31;55512;50.102;19.958;2023-05-01T05:54:42;10.79;48.50
68511;SHT31;55512;50.102;19.958;2023-05-01T05:57:07;10.88;48.27
68511;SHT31;55512;50.102;19.958;2023-05-01T05:59:33;10.97;48.03
68511;SHT31;55512;50.102;19.958;2023-05-01T06:01:59;11.06;47.72
68511;SHT31;55512;50.102;19.958;2023-05-01T06:04:25;11.13;47.43
68511;SHT31;55512;50.102;19.958;2023-05-01T06:06:50;11.23;47.26
68511;SHT31;55512;50.102;19.958;2023-05-01T06:09:16;11.32;47.20
68511;SHT31;55512;50.102;19.958;2023-05-01T06:11:42;11.41;47.14
68511;SHT31;55512;50.102;19.958;2023-05-01T06:14:09;11.50;47.01
68511;SHT31;55512;50.102;19.958;2023-05-01T06:16:35;11.61;46.76
68511;SHT31;55512;50.102;19.958;2023-05-01T06:19:02;11.71;46.57
68511;SHT31;55512;50.102;19.958;2023-05-01T06:21:27;11.81;46.41
68511;SHT31;55512;50.102;19.958;2023-05-01T06:23:53;11.91;46.15
68511;SHT31;55512;50.102;19.958;2023-05-01T06:26:19;12.01;45.81
68511;SHT31;55512;50.102;19.958;2023-05-01T06:28:45;12.11;45.62
68511;SHT31;55512;50.102;19.958;2023-05-01T06:31:11;12.21;45.58
68511;SHT31;55512;50.102;19.958;2023-05-01T06:33:36;12.30;45.39
68511;SHT31;55512;50.102;19.958;2023-05-01T06:36:02;12.37;44.93
68511;SHT31;55512;50.102;19.958;2023-05-01T06:38:28;12.47;44.37
68511;SHT31;55512;50.102;19.958;2023-05-01T06:40:53;12.58;44.17
68511;SHT31;55512;50.102;19.958;2023-05-01T06:43:19;12.66;43.90
68511;SHT31;55512;50.102;19.958;2023-05-01T06:45:45;12.77;43.59
68511;SHT31;55512;50.102;19.958;2023-05-01T06:48:10;12.87;43.19
68511;SHT31;55512;50.102;19.958;2023-05-01T06:50:36;12.96;42.96
68511;SHT31;55512;50.102;19.958;2023-05-01T06:53:01;13.05;42.78
68511;SHT31;55512;50.102;19.958;2023-05-01T06:55:27;13.13;42.57
68511;SHT31;55512;50.102;19.958;2023-05-01T06:57:57;13.22;42.29
68511;SHT31;55512;50.102;19.958;2023-05-01T07:00:22;13.32;41.98
68511;SHT31;55512;50.102;19.958;2023-05-01T07:02:48;13.41;41.57
68511;SHT31;55512;50.102;19.958;2023-05-01T07:05:14;13.48;41.50
68511;SHT31;55512;50.102;19.958;2023-05-01T07:07:39;13.56;41.41
68511;SHT31;55512;50.102;19.958;2023-05-01T07:10:05;13.64;40.95
68511;SHT31;55512;50.102;19.958;2023-05-01T07:12:31;13.71;40.63
68511;SHT31;55512;50.102;19.958;2023-05-01T07:14:56;13.78;40.57
68511;SHT31;55512;50.102;19.958;2023-05-01T07:17:22;13.85;40.29
68511;SHT31;55512;50.102;19.958;2023-05-01T07:19:47;13.92;40.09
68511;SHT31;55512;50.102;19.958;2023-05-01T07:22:14;13.97;40.06
68511;SHT31;55512;50.102;19.958;2023-05-01T07:24:40;14.05;39.95
68511;SHT31;55512;50.102;19.958;2023-05-01T07:27:05;14.13;39.92
68511;SHT31;55512;50.102;19.958;2023-05-01T07:29:31;14.19;39.77
68511;SHT31;55512;50.102;19.958;2023-05-01T07:31:57;14.25;39.78
68511;SHT31;55512;50.102;19.958;2023-05-01T07:34:23;14.31;39.69
68511;SHT31;55512;50.102;19.958;2023-05-01T07:36:48;14.38;39.71
68511;SHT31;55512;50.102;19.958;2023-05-01T07:39:14;14.46;39.61
68511;SHT31;55512;50.102;19.958;2023-05-01T07:41:41;14.52;39.49
68511;SHT31;55512;50.102;19.958;2023-05-01T07:44:07;14.58;39.26
68511;SHT31;55512;50.102;19.958;2023-05-01T07:46:33;14.65;39.12
68511;SHT31;55512;50.102;19.958;2023-05-01T07:49:00;14.71;39.13
68511;SHT31;55512;50.102;19.958;2023-05-01T07:51:25;14.77;39.18
68511;SHT31;55512;50.102;19.958;2023-05-01T07:53:51;14.85;38.92
68511;SHT31;55512;50.102;19.958;2023-05-01T07:56:17;14.90;38.83
68511;SHT31;55512;50.102;19.958;2023-05-01T07:58:42;14.97;38.77
68511;SHT31;55512;50.102;19.958;2023-05-01T08:01:08;15.03;38.58
68511;SHT31;55512;50.102;19.958;2023-05-01T08:03:34;15.09;38.21
68511;SHT31;55512;50.102;19.958;2023-05-01T08:05:59;15.14;37.83
68511;SHT31;55512;50.102;19.958;2023-05-01T08:08:25;15.20;37.76
68511;SHT31;55512;50.102;19.958;2023-05-01T08:10:51;15.24;37.44
68511;SHT31;55512;50.102;19.958;2023-05-01T08:13:16;15.29;36.61
68511;SHT31;55512;50.102;19.958;2023-05-01T08:15:44;15.34;36.79
68511;SHT31;55512;50.102;19.958;2023-05-01T08:18:11;15.39;36.83
68511;SHT31;55512;50.102;19.958;2023-05-01T08:20:39;15.44;36.73
68511;SHT31;55512;50.102;19.958;2023-05-01T08:23:05;15.50;36.57
68511;SHT31;55512;50.102;19.958;2023-05-01T08:25:30;15.55;36.38
68511;SHT31;55512;50.102;19.958;2023-05-01T08:27:56;15.60;35.82
68511;SHT31;55512;50.102;19.958;2023-05-01T08:30:22;15.66;35.64
68511;SHT31;55512;50.102;19.958;2023-05-01T08:32:47;15.73;35.57
68511;SHT31;55512;50.102;19.958;2023-05-01T08:35:13;15.79;35.44
68511;SHT31;55512;50.102;19.958;2023-05-01T08:37:38;15.85;35.43
68511;SHT31;55512;50.102;19.958;2023-05-01T08:40:04;15.89;34.82
68511;SHT31;55512;50.102;19.958;2023-05-01T08:42:35;15.93;34.74
68511;SHT31;55512;50.102;19.958;2023-05-01T08:45:04;15.97;35.04
68511;SHT31;55512;50.102;19.958;2023-05-01T08:47:34;16.02;35.22
68511;SHT31;55512;50.102;19.958;2023-05-01T08:50:02;16.07;35.34
68511;SHT31;55512;50.102;19.958;2023-05-01T08:52:33;16.11;35.70
68511;SHT31;55512;50.102;19.958;2023-05-01T08:55:02;16.17;36.05
68511;SHT31;55512;50.102;19.958;2023-05-01T08:57:28;16.23;36.12
68511;SHT31;55512;50.102;19.958;2023-05-01T08:59:56;16.27;36.21
68511;SHT31;55512;50.102;19.958;2023-05-01T09:02:23;16.34;36.31
68511;SHT31;55512;50.102;19.958;2023-05-01T09:04:48;16.42;36.22
68511;SHT31;55512;50.102;19.958;2023-05-01T09:07:15;16.48;36.04
68511;SHT31;55512;50.102;19.958;2023-05-01T09:09:41;16.54;35.86
68511;SHT31;55512;50.102;19.958;2023-05-01T09:14:49;16.63;35.35
68511;SHT31;55512;50.102;19.958;2023-05-01T09:17:17;16.67;35.21
68511;SHT31;55512;50.102;19.958;2023-05-01T09:19:44;16.70;35.18
68511;SHT31;55512;50.102;19.958;2023-05-01T09:22:09;16.77;34.80
68511;SHT31;55512;50.102;19.958;2023-05-01T09:24:35;16.84;34.54
68511;SHT31;55512;50.102;19.958;2023-05-01T09:27:00;16.91;34.47
68511;SHT31;55512;50.102;19.958;2023-05-01T09:29:36;16.98;34.54
68511;SHT31;55512;50.102;19.958;2023-05-01T09:32:20;17.05;34.33
68511;SHT31;55512;50.102;19.958;2023-05-01T09:34:49;17.13;34.17
68511;SHT31;55512;50.102;19.958;2023-05-01T09:37:32;17.20;33.81
68511;SHT31;55512;50.102;19.958;2023-05-01T09:42:33;17.36;33.26
68511;SHT31;55512;50.102;19.958;2023-05-01T09:45:02;17.42;33.04
68511;SHT31;55512;50.102;19.958;2023-05-01T09:47:31;17.48;32.85
68511;SHT31;55512;50.102;19.958;2023-05-01T09:49:58;17.54;32.80
68511;SHT31;55512;50.102;19.958;2023-05-01T09:52:29;17.60;32.49
68511;SHT31;55512;50.102;19.958;2023-05-01T09:55:15;17.64;32.17
68511;SHT31;55512;50.102;19.958;2023-05-01T09:57:43;17.69;32.09
68511;SHT31;55512;50.102;19.958;2023-05-01T10:00:12;17.74;31.93
68511;SHT31;55512;50.102;19.958;2023-05-01T10:02:40;17.81;31.87
68511;SHT31;55512;50.102;19.958;2023-05-01T10:05:08;17.86;31.48
68511;SHT31;55512;50.102;19.958;2023-05-01T10:07:35;17.92;31.28
68511;SHT31;55512;50.102;19.958;2023-05-01T10:10:17;17.97;31.51
68511;SHT31;55512;50.102;19.958;2023-05-01T10:12:45;18.03;31.78
68511;SHT31;55512;50.102;19.958;2023-05-01T10:15:11;18.09;31.91
68511;SHT31;55512;50.102;19.958;2023-05-01T10:17:37;18.14;31.80
68511;SHT31;55512;50.102;19.958;2023-05-01T10:20:05;18.21;31.57
68511;SHT31;55512;50.102;19.958;2023-05-01T10:22:33;18.25;31.08
68511;SHT31;55512;50.102;19.958;2023-05-01T10:24:59;18.30;31.16
68511;SHT31;55512;50.102;19.958;2023-05-01T10:27:25;18.37;30.89
68511;SHT31;55512;50.102;19.958;2023-05-01T10:29:52;18.44;30.43
68511;SHT31;55512;50.102;19.958;2023-05-01T10:32:18;18.50;30.48
68511;SHT31;55512;50.102;19.958;2023-05-01T10:34:50;18.56;30.58
68511;SHT31;55512;50.102;19.958;2023-05-01T10:37:23;18.61;30.55
68511;SHT31;55512;50.102;19.958;2023-05-01T10:39:59;18.66;30.65
68511;SHT31;55512;50.102;19.958;2023-05-01T10:49:00;18.86;30.95
68511;SHT31;55512;50.102;19.958;2023-05-01T10:51:25;18.94;30.45
68511;SHT31;55512;50.102;19.958;2023-05-01T10:54:37;19.01;30.10
68511;SHT31;55512;50.102;19.958;2023-05-01T10:59:03;19.07;29.42
68511;SHT31;55512;50.102;19.958;2023-05-01T11:04:06;19.20;29.78
68511;SHT31;55512;50.102;19.958;2023-05-01T11:09:37;19.35;29.79
68511;SHT31;55512;50.102;19.958;2023-05-01T11:12:07;19.42;29.47
68511;SHT31;55512;50.102;19.958;2023-05-01T11:15:00;19.48;29.03
68511;SHT31;55512;50.102;19.958;2023-05-01T11:22:33;19.70;29.04
68511;SHT31;55512;50.102;19.958;2023-05-01T11:25:00;19.77;29.29
68511;SHT31;55512;50.102;19.958;2023-05-01T11:27:30;19.86;29.84
68511;SHT31;55512;50.102;19.958;2023-05-01T11:29:57;19.94;28.88
68511;SHT31;55512;50.102;19.958;2023-05-01T11:32:24;20.00;27.72
68511;SHT31;55512;50.102;19.958;2023-05-01T11:34:52;20.06;27.60
68511;SHT31;55512;50.102;19.958;2023-05-01T11:37:18;20.15;27.18
68511;SHT31;55512;50.102;19.958;2023-05-01T11:40:02;20.22;27.00
68511;SHT31;55512;50.102;19.958;2023-05-01T11:42:29;20.28;27.66
68511;SHT31;55512;50.102;19.958;2023-05-01T11:45:07;20.37;28.10
68511;SHT31;55512;50.102;19.958;2023-05-01T11:47:37;20.46;28.66
68511;SHT31;55512;50.102;19.958;2023-05-01T11:50:04;20.55;29.13
68511;SHT31;55512;50.102;19.958;2023-05-01T11:52:52;20.66;29.22
68511;SHT31;55512;50.102;19.958;2023-05-01T11:55:18;20.77;29.10
68511;SHT31;55512;50.102;19.958;2023-05-01T11:57:48;20.87;28.93
68511;SHT31;55512;50.102;19.958;2023-05-01T12:00:29;20.83;29.15
68511;SHT31;55512;50.102;19.958;2023-05-01T12:05:36;20.30;27.90
68511;SHT31;55512;50.102;19.958;2023-05-01T12:08:14;21.07;27.66
68511;SHT31;55512;50.102;19.958;2023-05-01T12:10:46;21.26;27.59
68511;SHT31;55512;50.102;19.958;2023-05-01T12:13:17;21.38;27.40
68511;SHT31;55512;50.102;19.958;2023-05-01T12:15:45;21.52;27.45
68511;SHT31;55512;50.102;19.958;2023-05-01T12:18:14;21.63;26.68
68511;SHT31;55512;50.102;19.958;2023-05-01T12:20:45;21.73;26.67
68511;SHT31;55512;50.102;19.958;2023-05-01T12:23:16;21.84;26.42
68511;SHT31;55512;50.102;19.958;2023-05-01T12:25:44;21.88;25.70
68511;SHT31;55512;50.102;19.958;2023-05-01T12:28:14;21.81;25.74
68511;SHT31;55512;50.102;19.958;2023-05-01T12:30:43;21.89;25.83
68511;SHT31;55512;50.102;19.958;2023-05-01T12:33:19;22.00;25.88
68511;SHT31;55512;50.102;19.958;2023-05-01T12:35:47;22.12;25.87
68511;SHT31;55512;50.102;19.958;2023-05-01T12:40:56;22.36;25.52
68511;SHT31;55512;50.102;19.958;2023-05-01T12:43:36;22.41;25.82
68511;SHT31;55512;50.102;19.958;2023-05-01T12:46:03;22.48;25.52
68511;SHT31;55512;50.102;19.958;2023-05-01T12:48:30;22.52;25.54
68511;SHT31;55512;50.102;19.958;2023-05-01T12:50:58;22.63;25.84
68511;SHT31;55512;50.102;19.958;2023-05-01T12:53:26;22.76;25.50
68511;SHT31;55512;50.102;19.958;2023-05-01T12:55:54;22.83;25.68
68511;SHT31;55512;50.102;19.958;2023-05-01T12:58:21;22.97;25.18
68511;SHT31;55512;50.102;19.958;2023-05-01T13:00:52;23.09;24.74
68511;SHT31;55512;50.102;19.958;2023-05-01T13:03:23;23.23;24.67
68511;SHT31;55512;50.102;19.958;2023-05-01T13:05:58;23.30;24.25
68511;SHT31;55512;50.102;19.958;2023-05-01T13:10:54;23.50;24.45
68511;SHT31;55512;50.102;19.958;2023-05-01T13:13:32;23.60;23.74
68511;SHT31;55512;50.102;19.958;2023-05-01T13:16:03;23.56;23.99
68511;SHT31;55512;50.102;19.958;2023-05-01T13:21:08;23.87;24.14
68511;SHT31;55512;50.102;19.958;2023-05-01T13:23:37;24.05;23.88
68511;SHT31;55512;50.102;19.958;2023-05-01T13:26:04;24.21;23.88
68511;SHT31;55512;50.102;19.958;2023-05-01T13:28:35;24.35;23.84
68511;SHT31;55512;50.102;19.958;2023-05-01T13:31:18;24.48;23.85
68511;SHT31;55512;50.102;19.958;2023-05-01T13:33:43;24.61;23.48
68511;SHT31;55512;50.102;19.958;2023-05-01T13:36:09;24.73;23.37
68511;SHT31;55512;50.102;19.958;2023-05-01T13:38:40;24.83;23.16
68511;SHT31;55512;50.102;19.958;2023-05-01T13:41:19;24.89;23.31
68511;SHT31;55512;50.102;19.958;2023-05-01T13:43:47;25.02;23.54
68511;SHT31;55512;50.102;19.958;2023-05-01T13:46:14;25.21;23.61
68511;SHT31;55512;50.102;19.958;2023-05-01T13:48:42;24.87;23.93
68511;SHT31;55512;50.102;19.958;2023-05-01T13:51:09;24.43;24.32
68511;SHT31;55512;50.102;19.958;2023-05-01T13:53:37;24.52;24.13
68511;SHT31;55512;50.102;19.958;2023-05-01T13:56:05;24.62;23.80
68511;SHT31;55512;50.102;19.958;2023-05-01T13:58:33;24.75;23.59
68511;SHT31;55512;50.102;19.958;2023-05-01T14:01:00;24.90;23.47
68511;SHT31;55512;50.102;19.958;2023-05-01T14:03:29;25.00;23.12
68511;SHT31;55512;50.102;19.958;2023-05-01T14:06:04;25.08;23.15
68511;SHT31;55512;50.102;19.958;2023-05-01T14:08:29;25.56;22.61
68511;SHT31;55512;50.102;19.958;2023-05-01T14:10:56;26.47;21.97
68511;SHT31;55512;50.102;19.958;2023-05-01T14:13:22;26.72;21.59
68511;SHT31;55512;50.102;19.958;2023-05-01T14:15:51;26.92;21.35
68511;SHT31;55512;50.102;19.958;2023-05-01T14:18:17;27.10;21.22
68511;SHT31;55512;50.102;19.958;2023-05-01T14:20:45;27.28;21.21
68511;SHT31;55512;50.102;19.958;2023-05-01T14:23:12;27.44;21.17
68511;SHT31;55512;50.102;19.958;2023-05-01T14:25:43;27.71;21.23
68511;SHT31;55512;50.102;19.958;2023-05-01T14:28:09;28.10;20.96
68511;SHT31;55512;50.102;19.958;2023-05-01T14:30:36;28.54;20.60
68511;SHT31;55512;50.102;19.958;2023-05-01T14:33:10;29.29;19.98
68511;SHT31;55512;50.102;19.958;2023-05-01T14:35:55;30.92;19.06
68511;SHT31;55512;50.102;19.958;2023-05-01T14:38:21;33.75;17.88
68511;SHT31;55512;50.102;19.958;2023-05-01T14:40:49;36.28;16.75
68511;SHT31;55512;50.102;19.958;2023-05-01T14:43:16;38.40;15.85
68511;SHT31;55512;50.102;19.958;2023-05-01T14:45:44;40.20;15.06
68511;SHT31;55512;50.102;19.958;2023-05-01T14:48:20;41.59;14.54
68511;SHT31;55512;50.102;19.958;2023-05-01T14:50:48;43.13;14.12
68511;SHT31;55512;50.102;19.958;2023-05-01T14:53:15;44.47;13.54
68511;SHT31;55512;50.102;19.958;2023-05-01T14:55:41;45.34;13.01
68511;SHT31;55512;50.102;19.958;2023-05-01T14:58:06;46.27;12.56
68511;SHT31;55512;50.102;19.958;2023-05-01T15:00:32;47.29;12.09
68511;SHT31;55512;50.102;19.958;2023-05-01T15:02:58;48.10;11.64
68511;SHT31;55512;50.102;19.958;2023-05-01T15:05:24;48.82;11.41
68511;SHT31;55512;50.102;19.958;2023-05-01T15:07:53;49.40;11.06
68511;SHT31;55512;50.102;19.958;2023-05-01T15:10:24;50.01;10.76
68511;SHT31;55512;50.102;19.958;2023-05-01T15:12:50;50.31;10.44
68511;SHT31;55512;50.102;19.958;2023-05-01T15:15:17;50.57;10.42
68511;SHT31;55512;50.102;19.958;2023-05-01T15:17:42;51.04;10.20
68511;SHT31;55512;50.102;19.958;2023-05-01T15:20:08;51.22;9.92
68511;SHT31;55512;50.102;19.958;2023-05-01T15:22:35;51.43;9.81
68511;SHT31;55512;50.102;19.958;2023-05-01T15:25:01;51.63;9.70
68511;SHT31;55512;50.102;19.958;2023-05-01T15:27:27;50.64;10.00
68511;SHT31;55512;50.102;19.958;2023-05-01T15:29:53;50.67;10.07
68511;SHT31;55512;50.102;19.958;2023-05-01T15:32:19;51.18;9.81
68511;SHT31;55512;50.102;19.958;2023-05-01T15:34:44;51.10;9.67
68511;SHT31;55512;50.102;19.958;2023-05-01T15:37:10;50.93;9.60
68511;SHT31;55512;50.102;19.958;2023-05-01T15:39:36;50.88;9.54
68511;SHT31;55512;50.102;19.958;2023-05-01T15:42:04;50.85;9.32
68511;SHT31;55512;50.102;19.958;2023-05-01T15:44:29;50.58;9.22
68511;SHT31;55512;50.102;19.958;2023-05-01T15:46:55;50.21;9.35
68511;SHT31;55512;50.102;19.958;2023-05-01T15:49:21;50.03;9.35
68511;SHT31;55512;50.102;19.958;2023-05-01T15:51:47;49.90;9.18
68511;SHT31;55512;50.102;19.958;2023-05-01T15:54:12;49.46;9.29
68511;SHT31;55512;50.102;19.958;2023-05-01T15:56:38;49.02;9.27
68511;SHT31;55512;50.102;19.958;2023-05-01T15:59:04;48.62;9.49
68511;SHT31;55512;50.102;19.958;2023-05-01T16:01:31;48.28;9.57
68511;SHT31;55512;50.102;19.958;2023-05-01T16:03:59;47.81;9.61
68511;SHT31;55512;50.102;19.958;2023-05-01T16:06:27;47.03;9.74
68511;SHT31;55512;50.102;19.958;2023-05-01T16:08:53;46.01;9.98
68511;SHT31;55512;50.102;19.958;2023-05-01T16:11:19;44.85;10.12
68511;SHT31;55512;50.102;19.958;2023-05-01T16:13:44;43.65;10.33
68511;SHT31;55512;50.102;19.958;2023-05-01T16:16:11;42.70;10.58
68511;SHT31;55512;50.102;19.958;2023-05-01T16:18:52;41.72;10.83
68511;SHT31;55512;50.102;19.958;2023-05-01T16:21:19;40.86;11.06
68511;SHT31;55512;50.102;19.958;2023-05-01T16:23:46;40.32;11.29